Time;durP1;ratioP1;P1;durP2;ratioP2;P2;SDS_P1;SDS_P2;PMS_P1;PMS_P2;Temp;Humidity;BMP_temperature;BMP_pressure;BME280_temperature;BME280_humidity;BME280_pressure;Samples;Min_cycle;Max_cycle;Signal;HPM_P1;HPM_P2
2022/11/25 00:00:51;;;;;;;9.82;5.82;;;-4.00;98.70;;;;;;4996810;28;20015;-80
2022/11/25 00:03:17;;;;;;;9.15;5.75;;;-4.10;98.60;;;;;;4994905;28;20487;-80
2022/11/25 00:05:43;;;;;;;8.35;5.20;;;-4.20;98.50;;;;;;5000162;28;20141;-79
2022/11/25 00:08:09;;;;;;;9.07;4.93;;;-4.20;98.70;;;;;;4998053;28;20026;-79
2022/11/25 00:10:34;;;;;;;9.02;5.25;;;-4.10;98.80;;;;;;4993777;28;20073;-79
2022/11/25 00:13:00;;;;;;;7.70;5.20;;;-4.10;98.60;;;;;;4995468;28;20025;-80
2022/11/25 00:15:26;;;;;;;9.13;6.00;;;-4.10;98.40;;;;;;4994422;28;20030;-81
2022/11/25 00:17:52;;;;;;;8.45;5.20;;;-4.10;98.40;;;;;;4995294;28;20093;-80
2022/11/25 00:20:20;;;;;;;8.43;4.45;;;-4.00;98.30;;;;;;4999065;28;20030;-81
2022/11/25 00:22:46;;;;;;;6.97;4.72;;;-4.10;98.10;;;;;;4995423;28;20018;-79
2022/11/25 00:25:12;;;;;;;5.72;4.25;;;-4.10;98.10;;;;;;4995551;28;20062;-81
2022/11/25 00:27:37;;;;;;;7.70;3.95;;;-4.20;97.70;;;;;;4994874;28;20018;-80
2022/11/25 00:30:04;;;;;;;7.20;4.78;;;-4.30;97.70;;;;;;4995498;28;20125;-81
2022/11/25 00:32:30;;;;;;;8.00;5.63;;;-4.40;97.80;;;;;;4994321;28;20091;-81
2022/11/25 00:34:56;;;;;;;7.40;4.63;;;-4.40;98.00;;;;;;4995488;28;20113;-81
2022/11/25 00:37:22;;;;;;;3.78;3.45;;;-4.40;98.10;;;;;;4995034;28;20025;-81
2022/11/25 00:39:47;;;;;;;10.43;5.95;;;-4.40;98.10;;;;;;4995477;28;20027;-81
2022/11/25 00:44:57;;;;;;;7.93;5.32;;;-4.40;98.20;;;;;;4999813;28;20112;-81
2022/11/25 00:47:23;;;;;;;9.82;6.22;;;-4.50;98.40;;;;;;5000544;28;20531;-81
2022/11/25 00:49:53;;;;;;;12.52;5.97;;;-4.40;98.50;;;;;;4995097;28;20488;-81
2022/11/25 00:52:25;;;;;;;10.80;4.80;;;-4.50;98.50;;;;;;4995382;28;20018;-80
2022/11/25 00:54:52;;;;;;;9.82;5.55;;;-4.40;98.70;;;;;;4994769;28;20032;-83
2022/11/25 00:57:20;;;;;;;9.82;5.82;;;-4.40;98.70;;;;;;4993974;28;20129;-82
2022/11/25 00:59:46;;;;;;;8.43;5.25;;;-4.30;98.70;;;;;;4994804;28;20213;-80
2022/11/25 01:02:13;;;;;;;10.23;7.30;;;-4.30;98.70;;;;;;4996027;28;20500;-80
2022/11/25 01:04:39;;;;;;;12.85;7.68;;;-4.30;98.50;;;;;;4999724;28;20018;-80
2022/11/25 01:07:06;;;;;;;11.10;5.72;;;-4.30;98.30;;;;;;4995816;28;20126;-81
2022/11/25 01:09:31;;;;;;;9.83;6.27;;;-4.30;98.40;;;;;;4989594;28;20034;-80
2022/11/25 01:11:57;;;;;;;8.40;5.28;;;-4.30;98.60;;;;;;4993707;28;20029;-80
2022/11/25 01:14:24;;;;;;;10.35;6.03;;;-4.30;98.60;;;;;;4994547;28;20030;-80
2022/11/25 01:16:50;;;;;;;9.73;5.63;;;-4.20;98.50;;;;;;4994314;28;20022;-80
2022/11/25 01:19:17;;;;;;;8.30;5.47;;;-4.20;98.50;;;;;;4994369;28;20276;-80
2022/11/25 01:21:43;;;;;;;9.43;5.50;;;-4.30;98.30;;;;;;4995747;28;20027;-80
2022/11/25 01:24:12;;;;;;;10.45;6.50;;;-4.30;98.30;;;;;;4993839;28;20042;-78
2022/11/25 01:26:39;;;;;;;8.13;6.22;;;-4.40;98.10;;;;;;4992672;28;20026;-79
2022/11/25 01:29:11;;;;;;;8.73;6.57;;;-4.40;98.30;;;;;;4993924;28;20479;-81
2022/11/25 01:31:36;;;;;;;12.90;7.32;;;-4.40;98.50;;;;;;4994074;28;20104;-79
2022/11/25 01:34:11;;;;;;;10.07;6.50;;;-4.30;98.60;;;;;;4993019;28;20022;-79
2022/11/25 01:36:38;;;;;;;8.80;6.07;;;-4.30;98.50;;;;;;4991986;28;20029;-80
2022/11/25 01:39:04;;;;;;;10.85;6.07;;;-4.30;98.50;;;;;;4993776;28;20023;-80
2022/11/25 01:41:31;;;;;;;9.07;5.70;;;-4.30;98.50;;;;;;4994054;28;20089;-79
2022/11/25 01:44:13;;;;;;;8.75;6.15;;;-4.30;98.50;;;;;;4992276;28;20430;-80
2022/11/25 01:46:42;;;;;;;8.45;6.22;;;-4.40;98.30;;;;;;4994078;28;20050;-80
2022/11/25 01:49:15;;;;;;;7.65;5.93;;;-4.40;98.60;;;;;;4994140;28;20364;-80
2022/11/25 01:52:11;;;;;;;8.23;5.88;;;-4.40;98.60;;;;;;5002291;28;20019;-77
2022/11/25 01:55:00;;;;;;;9.57;5.97;;;-4.40;98.70;;;;;;4990814;28;20046;-79
2022/11/25 01:57:51;;;;;;;10.93;5.07;;;-4.40;98.70;;;;;;4989803;28;20029;-80
2022/11/25 02:00:18;;;;;;;8.52;5.38;;;-4.30;98.60;;;;;;4987363;28;20356;-79
2022/11/25 02:02:45;;;;;;;7.93;4.75;;;-4.40;98.50;;;;;;4993414;28;20022;-80
2022/11/25 02:05:15;;;;;;;8.23;5.50;;;-4.40;98.60;;;;;;4993640;28;20061;-81
2022/11/25 02:07:45;;;;;;;9.57;5.82;;;-4.30;98.70;;;;;;4992976;28;20388;-79
2022/11/25 02:10:17;;;;;;;11.38;5.90;;;-4.30;98.70;;;;;;4993285;28;20104;-80
2022/11/25 02:12:45;;;;;;;6.97;4.75;;;-4.20;98.70;;;;;;4992476;28;20054;-80
2022/11/25 02:15:13;;;;;;;9.00;5.63;;;-4.20;98.40;;;;;;4991894;28;20415;-82
2022/11/25 02:17:39;;;;;;;8.15;5.55;;;-4.20;98.20;;;;;;4992219;28;20030;-80
2022/11/25 02:20:09;;;;;;;6.77;5.27;;;-4.30;98.10;;;;;;4993378;28;20030;-80
2022/11/25 02:22:54;;;;;;;11.23;4.90;;;-4.30;98.00;;;;;;4986254;28;20260;-80
2022/11/25 02:25:29;;;;;;;7.50;5.15;;;-4.40;97.90;;;;;;4988930;28;20043;-80
2022/11/25 02:28:22;;;;;;;7.65;5.35;;;-4.40;98.20;;;;;;4991649;28;20031;-80
2022/11/25 02:30:49;;;;;;;8.38;6.22;;;-4.40;98.30;;;;;;4980030;28;20066;-81
2022/11/25 02:33:16;;;;;;;9.87;3.90;;;-4.40;98.20;;;;;;4993498;28;20023;-80
2022/11/25 02:35:45;;;;;;;8.23;6.63;;;-4.30;98.20;;;;;;4993125;28;20415;-80
2022/11/25 02:38:20;;;;;;;12.88;5.63;;;-4.40;98.20;;;;;;4994174;28;20030;-80
2022/11/25 02:40:59;;;;;;;14.07;8.07;;;-4.40;98.20;;;;;;4997352;28;20022;-79
2022/11/25 02:43:26;;;;;;;7.60;5.93;;;-4.40;98.20;;;;;;4997449;28;20023;-80
2022/11/25 02:46:07;;;;;;;12.93;7.18;;;-4.40;98.30;;;;;;4994140;28;20026;-79
2022/11/25 02:48:36;;;;;;;11.68;5.70;;;-4.30;98.40;;;;;;4997013;28;20101;-79
2022/11/25 02:51:02;;;;;;;12.73;6.60;;;-4.40;98.30;;;;;;5004405;28;20029;-79
2022/11/25 02:53:28;;;;;;;10.02;6.28;;;-4.30;98.50;;;;;;5001687;28;20037;-79
2022/11/25 02:55:54;;;;;;;10.85;7.63;;;-4.30;98.40;;;;;;4999303;28;20022;-78
2022/11/25 02:58:20;;;;;;;9.40;6.68;;;-4.20;98.50;;;;;;4997492;28;20045;-80
2022/11/25 03:00:46;;;;;;;9.38;6.65;;;-4.20;98.30;;;;;;4996658;28;20472;-80
2022/11/25 03:03:13;;;;;;;11.35;7.00;;;-4.30;98.30;;;;;;4995247;28;20104;-79
2022/11/25 03:05:40;;;;;;;8.48;6.45;;;-4.30;98.30;;;;;;4996321;28;20026;-79
2022/11/25 03:08:06;;;;;;;12.80;7.65;;;-4.20;98.50;;;;;;4996691;28;20376;-79
2022/11/25 03:10:32;;;;;;;11.83;6.70;;;-4.10;98.80;;;;;;4994256;28;20050;-81
2022/11/25 03:12:58;;;;;;;13.27;7.05;;;-4.10;98.40;;;;;;4996349;28;20248;-80
2022/11/25 03:15:25;;;;;;;11.77;7.68;;;-4.00;98.40;;;;;;4996001;28;20057;-81
2022/11/25 03:17:51;;;;;;;10.95;7.78;;;-4.00;98.30;;;;;;4996511;28;20030;-81
2022/11/25 03:20:19;;;;;;;7.67;5.37;;;-3.90;98.20;;;;;;4996256;28;20026;-81
2022/11/25 03:22:45;;;;;;;10.23;6.80;;;-4.00;97.90;;;;;;4996652;28;20026;-81
2022/11/25 03:25:13;;;;;;;16.08;9.80;;;-4.10;97.90;;;;;;4996244;28;20046;-80
2022/11/25 03:27:39;;;;;;;;;;;-4.10;97.80;;;;;;4995521;28;20032;-81
2022/11/25 03:30:08;;;;;;;9.10;6.90;;;-4.10;97.80;;;;;;4995814;28;19925;-81
2022/11/25 03:32:34;;;;;;;9.70;5.68;;;-4.20;98.00;;;;;;4996762;28;20472;-80
2022/11/25 03:35:00;;;;;;;9.30;6.40;;;-4.30;97.80;;;;;;4998070;28;20030;-80
2022/11/25 03:37:37;;;;;;;12.45;7.20;;;-4.30;98.00;;;;;;5003162;28;20048;-80
2022/11/25 03:40:06;;;;;;;11.38;7.95;;;-4.30;98.10;;;;;;4996091;28;20031;-80
2022/11/25 03:42:32;;;;;;;14.10;8.43;;;-4.30;98.30;;;;;;4994695;28;20472;-80
2022/11/25 03:44:58;;;;;;;11.95;6.57;;;-4.20;98.80;;;;;;4995511;28;20023;-79
2022/11/25 03:47:24;;;;;;;14.70;9.27;;;-4.10;98.50;;;;;;4995258;28;20011;-80
2022/11/25 03:49:50;;;;;;;13.77;8.57;;;-4.10;98.50;;;;;;4995300;28;20448;-80
2022/11/25 03:52:16;;;;;;;13.95;7.28;;;-4.10;98.70;;;;;;4995808;28;20583;-79
2022/11/25 03:54:42;;;;;;;10.60;8.15;;;-4.00;98.80;;;;;;4995977;28;20041;-79
2022/11/25 03:57:08;;;;;;;14.55;8.00;;;-3.90;98.80;;;;;;4996202;28;20109;-80
2022/11/25 03:59:33;;;;;;;11.60;7.13;;;-3.90;98.80;;;;;;4997018;28;20526;-79
2022/11/25 04:01:59;;;;;;;14.93;8.25;;;-3.80;98.70;;;;;;4993304;28;20030;-81
2022/11/25 04:04:25;;;;;;;13.98;8.60;;;-3.80;98.60;;;;;;4995768;28;20476;-80
2022/11/25 04:06:51;;;;;;;14.65;10.13;;;-3.80;98.40;;;;;;4995751;28;20026;-80
2022/11/25 04:09:17;;;;;;;19.40;10.15;;;-3.90;98.40;;;;;;4995531;28;20114;-80
2022/11/25 04:14:27;;;;;;;17.27;9.55;;;-4.00;98.60;;;;;;4991582;28;20065;-79
2022/11/25 04:16:52;;;;;;;15.30;9.25;;;-4.00;98.70;;;;;;4994023;28;20022;-81
2022/11/25 04:19:21;;;;;;;13.40;9.02;;;-4.00;98.80;;;;;;4996024;28;20147;-82
2022/11/25 04:21:47;;;;;;;22.40;12.23;;;-4.00;98.80;;;;;;4988649;28;20387;-81
2022/11/25 04:24:13;;;;;;;17.55;11.65;;;-4.00;98.90;;;;;;4999059;28;20042;-80
2022/11/25 04:26:39;;;;;;;15.45;8.85;;;-4.00;99.10;;;;;;4995171;28;20030;-80
2022/11/25 04:29:05;;;;;;;15.02;8.20;;;-4.00;99.10;;;;;;4994859;28;20173;-80
2022/11/25 04:31:31;;;;;;;14.45;9.57;;;-3.90;99.40;;;;;;4995019;28;20065;-81
2022/11/25 04:33:57;;;;;;;16.73;9.25;;;-3.90;99.00;;;;;;4995049;28;20025;-81
2022/11/25 04:36:23;;;;;;;17.13;10.95;;;-3.80;99.00;;;;;;5000086;28;20058;-80
2022/11/25 04:38:49;;;;;;;17.20;8.95;;;-3.80;98.80;;;;;;5002720;28;20023;-81
2022/11/25 04:41:15;;;;;;;12.73;10.20;;;-3.80;98.80;;;;;;5002988;28;20027;-82
2022/11/25 04:43:41;;;;;;;16.10;10.63;;;-3.90;98.80;;;;;;5000310;28;20023;-83
2022/11/25 04:46:08;;;;;;;17.23;10.80;;;-3.80;98.90;;;;;;4997980;28;20038;-83
2022/11/25 04:48:34;;;;;;;14.77;9.18;;;-3.80;99.00;;;;;;4995863;28;20080;-82
2022/11/25 04:50:59;;;;;;;12.82;8.43;;;-3.80;98.90;;;;;;4992671;28;20117;-81
2022/11/25 04:53:25;;;;;;;13.95;8.95;;;-3.80;98.70;;;;;;4992523;28;20027;-81
2022/11/25 04:55:51;;;;;;;13.50;9.63;;;-3.90;98.60;;;;;;4994297;28;20117;-79
2022/11/25 04:59:38;;;;;;;18.65;11.23;;;-4.00;98.70;;;;;;4992522;28;20026;-81
2022/11/25 05:01:03;;;;;;;15.80;8.13;;;-4.00;98.90;;;;;;4993435;28;20054;-82
2022/11/25 05:03:29;;;;;;;13.65;7.72;;;-4.00;98.90;;;;;;4993646;28;20030;-81
2022/11/25 05:05:55;;;;;;;11.13;7.30;;;-4.00;99.00;;;;;;4995044;28;20456;-81
2022/11/25 05:08:20;;;;;;;13.02;8.32;;;-4.10;98.90;;;;;;4993810;28;20065;-82
2022/11/25 05:10:46;;;;;;;19.48;12.38;;;-4.10;98.80;;;;;;4992779;28;20109;-81
2022/11/25 05:13:12;;;;;;;16.10;9.50;;;-4.10;99.20;;;;;;4993563;28;20054;-81
2022/11/25 05:15:38;;;;;;;13.82;8.05;;;-4.10;99.30;;;;;;4994208;28;20034;-80
2022/11/25 05:18:03;;;;;;;13.45;9.40;;;-4.10;99.20;;;;;;4994320;28;20026;-80
2022/11/25 05:20:29;;;;;;;15.55;9.25;;;-4.10;99.20;;;;;;5003795;28;20053;-81
2022/11/25 05:22:55;;;;;;;20.70;11.30;;;-4.00;99.40;;;;;;5000887;28;20029;-82
2022/11/25 05:25:23;;;;;;;16.98;8.63;;;-4.00;99.20;;;;;;4996426;28;20132;-79
2022/11/25 05:27:49;;;;;;;16.17;8.80;;;-4.00;99.20;;;;;;4997217;28;20499;-80
2022/11/25 05:30:15;;;;;;;14.60;9.00;;;-4.00;99.10;;;;;;4996368;28;20042;-80
2022/11/25 05:32:40;;;;;;;18.00;9.23;;;-4.00;99.00;;;;;;4993840;28;20028;-82
2022/11/25 05:35:07;;;;;;;12.45;6.55;;;-4.10;99.00;;;;;;4991961;28;20036;-81
2022/11/25 05:37:32;;;;;;;15.27;9.48;;;-4.10;99.00;;;;;;4993664;28;20112;-81
2022/11/25 05:39:58;;;;;;;15.27;8.50;;;-4.10;99.20;;;;;;4993137;28;20492;-82
2022/11/25 05:42:24;;;;;;;13.35;9.15;;;-4.00;99.40;;;;;;4993211;28;20440;-82
2022/11/25 05:44:50;;;;;;;18.20;10.20;;;-3.90;99.30;;;;;;4993252;28;20034;-81
2022/11/25 05:47:15;;;;;;;17.50;9.63;;;-3.90;99.20;;;;;;4992867;28;20058;-83
2022/11/25 05:49:41;;;;;;;15.77;8.93;;;-3.90;99.20;;;;;;4993077;28;20034;-81
2022/11/25 05:52:07;;;;;;;13.38;9.93;;;-3.80;99.10;;;;;;4994223;28;20109;-82
2022/11/25 05:54:33;;;;;;;14.10;7.00;;;-3.90;98.90;;;;;;4998260;28;20399;-81
2022/11/25 05:56:59;;;;;;;13.70;8.82;;;-4.00;98.90;;;;;;4994216;28;20024;-82
2022/11/25 05:59:24;;;;;;;13.07;8.00;;;-4.00;99.00;;;;;;4992395;28;20041;-81
2022/11/25 06:01:52;;;;;;;17.42;10.30;;;-4.00;99.10;;;;;;4992728;28;20395;-82
2022/11/25 06:04:18;;;;;;;15.35;10.65;;;-3.90;99.10;;;;;;4992484;28;20451;-80
2022/11/25 06:06:44;;;;;;;16.75;9.95;;;-3.90;99.20;;;;;;4991998;28;20056;-81
2022/11/25 06:09:10;;;;;;;14.45;9.70;;;-3.80;99.10;;;;;;4992012;28;20030;-80
2022/11/25 06:11:36;;;;;;;14.82;9.65;;;-3.80;99.10;;;;;;4992180;28;20044;-80
2022/11/25 06:14:02;;;;;;;19.83;10.45;;;-3.80;99.30;;;;;;4992486;28;20498;-79
2022/11/25 06:16:28;;;;;;;20.52;11.60;;;-3.80;99.00;;;;;;4994175;28;20089;-76
2022/11/25 06:18:54;;;;;;;18.10;11.25;;;-3.90;98.90;;;;;;4993767;28;20030;-81
2022/11/25 06:21:23;;;;;;;21.02;11.60;;;-4.00;98.90;;;;;;4992739;28;20027;-81
2022/11/25 06:23:48;;;;;;;20.58;10.77;;;-4.00;99.20;;;;;;4990216;28;20524;-84
2022/11/25 06:26:19;;;;;;;18.35;10.05;;;-4.00;99.50;;;;;;4996434;28;20109;-82
2022/11/25 06:28:45;;;;;;;22.33;12.57;;;-3.90;99.60;;;;;;4996800;28;20037;-79
2022/11/25 06:31:20;;;;;;;22.77;12.13;;;-3.80;99.60;;;;;;5001619;28;20026;-78
2022/11/25 06:33:47;;;;;;;16.65;11.10;;;-3.80;99.50;;;;;;4999148;28;20023;-78
2022/11/25 06:36:16;;;;;;;20.35;10.75;;;-3.80;99.40;;;;;;4996941;28;20029;-79
2022/11/25 06:38:43;;;;;;;19.05;9.98;;;-3.80;99.50;;;;;;4996463;28;20444;-80
2022/11/25 06:41:09;;;;;;;14.93;9.43;;;-3.70;99.50;;;;;;4995370;28;20014;-80
2022/11/25 06:43:35;;;;;;;18.05;10.18;;;-3.70;99.40;;;;;;4996498;28;20030;-79
2022/11/25 06:46:05;;;;;;;18.40;10.85;;;-3.70;99.40;;;;;;4996431;28;20380;-79
2022/11/25 06:48:31;;;;;;;15.48;9.25;;;-3.60;99.20;;;;;;4995584;28;20117;-79
2022/11/25 06:50:59;;;;;;;17.83;9.82;;;-3.70;98.80;;;;;;4996582;28;20034;-80
2022/11/25 06:53:25;;;;;;;;;;;-3.70;98.90;;;;;;4997856;28;20025;-80
2022/11/25 06:56:07;;;;;;;20.60;12.07;;;-3.70;99.10;;;;;;4998177;28;19907;-79
2022/11/25 06:58:34;;;;;;;16.95;9.68;;;-3.70;99.10;;;;;;4997009;28;20034;-80
2022/11/25 07:01:07;;;;;;;16.65;10.32;;;-3.70;99.10;;;;;;4995737;28;20053;-80
2022/11/25 07:03:34;;;;;;;16.73;9.98;;;-3.70;99.10;;;;;;4995943;28;20034;-79
2022/11/25 07:06:00;;;;;;;15.10;8.67;;;-3.70;99.10;;;;;;4996325;28;20029;-80
2022/11/25 07:08:26;;;;;;;18.35;12.73;;;-3.60;99.10;;;;;;4995986;28;20726;-80
2022/11/25 07:11:01;;;;;;;23.38;12.98;;;-3.70;99.10;;;;;;4995515;28;20570;-81
2022/11/25 07:13:26;;;;;;;14.77;9.52;;;-3.70;99.20;;;;;;4995863;28;20077;-78
2022/11/25 07:15:52;;;;;;;24.10;13.35;;;-3.70;99.10;;;;;;4995653;28;20142;-80
2022/11/25 07:18:18;;;;;;;17.52;11.10;;;-3.80;99.30;;;;;;4995208;28;20046;-79
2022/11/25 07:20:44;;;;;;;20.85;11.82;;;-3.80;99.40;;;;;;4995340;28;20492;-78
2022/11/25 07:23:10;;;;;;;16.63;9.38;;;-3.80;99.10;;;;;;4981710;28;20097;-80
2022/11/25 07:25:35;;;;;;;18.63;12.50;;;-3.90;99.10;;;;;;4987748;28;20086;-79
2022/11/25 07:28:01;;;;;;;20.70;10.73;;;-4.00;99.20;;;;;;4991552;28;20033;-79
2022/11/25 07:30:27;;;;;;;19.08;11.05;;;-4.00;99.40;;;;;;4995280;28;20035;-79
2022/11/25 07:32:54;;;;;;;17.55;9.55;;;-4.00;99.60;;;;;;4995533;28;20105;-79
2022/11/25 07:35:19;;;;;;;20.95;10.60;;;-4.00;99.80;;;;;;4995274;28;20084;-80
2022/11/25 07:37:45;;;;;;;19.88;10.05;;;-4.00;99.60;;;;;;4997459;28;20420;-79
2022/11/25 07:40:12;;;;;;;21.92;14.25;;;-4.10;99.70;;;;;;4995371;28;20088;-79
2022/11/25 07:42:37;;;;;;;22.05;13.18;;;-4.00;99.80;;;;;;4995193;28;20046;-78
2022/11/25 07:45:04;;;;;;;20.77;11.40;;;-3.90;99.90;;;;;;4995236;28;20061;-79
2022/11/25 07:47:33;;;;;;;24.35;15.35;;;-3.80;99.90;;;;;;4993409;28;20019;-78
2022/11/25 07:49:59;;;;;;;21.38;12.18;;;-3.80;99.80;;;;;;4995055;28;20037;-78
2022/11/25 07:52:25;;;;;;;26.08;12.63;;;-3.80;99.80;;;;;;5008935;28;20026;-80
2022/11/25 07:54:52;;;;;;;23.73;14.52;;;-3.70;99.80;;;;;;4993592;28;20188;-80
2022/11/25 07:57:18;;;;;;;;;;;-3.70;99.80;;;;;;4995102;28;20030;-80
2022/11/25 07:59:43;;;;;;;19.85;11.23;;;-3.60;99.70;;;;;;4993704;28;19913;-80
2022/11/25 08:02:10;;;;;;;14.50;9.13;;;-3.70;99.30;;;;;;4994890;28;20018;-79
2022/11/25 08:04:36;;;;;;;26.25;11.20;;;-3.80;99.40;;;;;;4994556;28;20042;-80
2022/11/25 08:07:02;;;;;;;17.77;12.00;;;-3.80;99.60;;;;;;4994940;28;20096;-80
2022/11/25 08:09:28;;;;;;;18.25;9.63;;;-3.70;99.70;;;;;;4994738;28;20653;-80
2022/11/25 08:11:53;;;;;;;24.20;9.55;;;-3.70;99.70;;;;;;4995872;28;20150;-81
2022/11/25 08:14:19;;;;;;;26.20;11.00;;;-3.60;99.60;;;;;;4993607;28;20480;-80
2022/11/25 08:16:45;;;;;;;21.95;12.10;;;-3.60;99.50;;;;;;4994542;28;20014;-80
2022/11/25 08:19:16;;;;;;;19.40;12.18;;;-3.70;99.30;;;;;;4994297;28;20026;-78
2022/11/25 08:21:42;;;;;;;20.88;12.68;;;-3.70;99.40;;;;;;4994532;28;20460;-78
2022/11/25 08:24:14;;;;;;;16.20;11.88;;;-3.70;99.60;;;;;;4995423;28;20492;-79
2022/11/25 08:26:40;;;;;;;20.58;13.82;;;-3.50;99.70;;;;;;4998812;28;20025;-79
2022/11/25 08:29:06;;;;;;;19.60;11.38;;;-3.50;99.50;;;;;;4998058;28;20018;-79
2022/11/25 08:31:36;;;;;;;31.95;14.63;;;-3.60;99.00;;;;;;4994748;28;20499;-80
2022/11/25 08:34:03;;;;;;;18.67;12.48;;;-3.70;99.10;;;;;;4994170;28;20023;-79
2022/11/25 08:36:30;;;;;;;18.55;10.75;;;-3.60;99.20;;;;;;4994322;28;20051;-80
2022/11/25 08:38:58;;;;;;;21.50;11.73;;;-3.60;99.30;;;;;;4994389;28;20543;-79
2022/11/25 08:41:27;;;;;;;24.25;12.85;;;-3.60;99.20;;;;;;4994426;28;20082;-80
2022/11/25 08:43:55;;;;;;;17.80;9.73;;;-3.60;99.20;;;;;;4994944;28;20035;-79
2022/11/25 08:46:25;;;;;;;20.70;11.57;;;-3.60;99.10;;;;;;4994677;28;20073;-81
2022/11/25 08:48:51;;;;;;;19.88;13.75;;;-3.60;99.20;;;;;;4993732;28;20499;-79
2022/11/25 08:51:28;;;;;;;16.45;9.57;;;-3.60;99.20;;;;;;4994892;28;20073;-80
2022/11/25 08:53:58;;;;;;;19.67;11.70;;;-3.60;99.20;;;;;;4994575;28;20396;-81
2022/11/25 08:56:24;;;;;;;16.73;12.25;;;-3.70;99.20;;;;;;4999318;28;20031;-78
2022/11/25 08:58:51;;;;;;;22.27;12.87;;;-3.60;99.40;;;;;;4997973;28;20022;-78
2022/11/25 09:01:18;;;;;;;15.95;9.73;;;-3.60;99.40;;;;;;4992850;28;20499;-80
2022/11/25 09:03:47;;;;;;;18.65;12.50;;;-3.60;99.20;;;;;;4993616;28;20432;-80
2022/11/25 09:06:14;;;;;;;16.08;11.70;;;-3.70;99.30;;;;;;4994376;28;20100;-80
2022/11/25 09:08:41;;;;;;;23.95;11.35;;;-3.60;99.40;;;;;;4992011;28;20037;-80
2022/11/25 09:11:09;;;;;;;21.88;13.05;;;-3.60;99.40;;;;;;4993406;28;20132;-81
2022/11/25 09:13:35;;;;;;;17.42;11.63;;;-3.60;99.40;;;;;;4993373;28;20030;-78
2022/11/25 09:16:02;;;;;;;22.70;12.95;;;-3.60;99.20;;;;;;4993190;28;20030;-80
2022/11/25 09:18:29;;;;;;;22.08;9.00;;;-3.70;99.30;;;;;;4993718;28;20455;-80
2022/11/25 09:20:56;;;;;;;18.52;11.90;;;-3.60;99.40;;;;;;4993147;28;20030;-80
2022/11/25 09:23:23;;;;;;;21.58;10.63;;;-3.70;99.40;;;;;;4991666;28;20057;-79
2022/11/25 09:25:53;;;;;;;18.67;11.83;;;-3.70;99.60;;;;;;4993336;28;20037;-81
2022/11/25 09:28:20;;;;;;;15.10;10.57;;;-3.60;99.70;;;;;;4993052;28;20291;-80
2022/11/25 09:30:46;;;;;;;15.82;11.48;;;-3.60;99.60;;;;;;4993172;28;20041;-80
2022/11/25 09:33:11;;;;;;;22.35;11.27;;;-3.60;99.50;;;;;;4993266;28;20026;-81
2022/11/25 09:35:37;;;;;;;29.80;13.35;;;-3.60;99.50;;;;;;4993536;28;20068;-80
2022/11/25 09:38:03;;;;;;;17.77;10.55;;;-3.60;99.60;;;;;;4993160;28;20018;-79
2022/11/25 09:40:49;;;;;;;18.05;11.00;;;-3.50;99.60;;;;;;4992939;28;20026;-79
2022/11/25 09:46:44;;;;;;;19.67;11.63;;;-3.50;99.60;;;;;;4980902;28;20041;-80
2022/11/25 09:49:31;;;;;;;24.17;14.43;;;-3.50;99.40;;;;;;4993111;28;20018;-81
2022/11/25 09:52:11;;;;;;;18.02;10.27;;;-3.40;99.40;;;;;;4993032;28;20026;-80
2022/11/25 09:54:42;;;;;;;19.90;9.93;;;-3.30;99.40;;;;;;4979660;28;20113;-80
2022/11/25 09:57:23;;;;;;;15.70;10.73;;;-3.30;99.20;;;;;;4993239;28;20076;-79
2022/11/25 10:00:04;;;;;;;16.60;8.68;;;-3.40;99.00;;;;;;4980485;28;20037;-80
2022/11/25 10:02:37;;;;;;;20.35;11.27;;;-3.50;99.10;;;;;;4992575;28;20049;-80
2022/11/25 10:05:22;;;;;;;17.95;10.75;;;-3.40;99.20;;;;;;4991403;28;20088;-78
2022/11/25 10:07:52;;;;;;;17.95;11.82;;;-3.40;99.00;;;;;;4992547;28;20022;-79
2022/11/25 10:10:29;;;;;;;20.25;10.85;;;-3.40;98.70;;;;;;4992375;28;20034;-79
2022/11/25 10:12:56;;;;;;;;;;;-3.40;99.00;;;;;;4992873;28;20417;-80
2022/11/25 10:15:40;;;;;;;16.60;9.95;;;-3.40;98.90;;;;;;4992648;28;19906;-80
2022/11/25 10:18:17;;;;;;;23.63;13.57;;;-3.50;98.90;;;;;;4992916;28;20033;-79
2022/11/25 10:20:44;;;;;;;21.38;11.45;;;-3.40;99.10;;;;;;4994392;28;20404;-79
2022/11/25 10:23:20;;;;;;;19.75;9.85;;;-3.30;99.10;;;;;;4998958;28;20023;-79
2022/11/25 10:25:50;;;;;;;15.35;8.32;;;-3.40;98.90;;;;;;4993304;28;20121;-79
2022/11/25 10:28:24;;;;;;;16.35;8.93;;;-3.40;98.80;;;;;;4995486;28;20053;-79
2022/11/25 10:31:21;;;;;;;15.45;9.27;;;-3.40;98.80;;;;;;4980040;28;20036;-78
2022/11/25 10:33:49;;;;;;;20.73;11.40;;;-3.40;99.00;;;;;;4993113;28;21594;-81
2022/11/25 10:36:38;;;;;;;18.35;11.13;;;-3.30;99.00;;;;;;4975656;28;20022;-78
2022/11/25 10:39:16;;;;;;;16.15;9.93;;;-3.30;98.80;;;;;;4994916;28;20034;-79
2022/11/25 10:41:51;;;;;;;18.40;10.48;;;-3.40;98.80;;;;;;4991793;28;20026;-79
2022/11/25 10:44:33;;;;;;;16.58;9.35;;;-3.40;98.80;;;;;;4992374;28;20080;-80
2022/11/25 10:47:20;;;;;;;22.58;13.02;;;-3.40;98.80;;;;;;4992524;28;20031;-80
2022/11/25 10:49:59;;;;;;;17.23;11.50;;;-3.50;99.00;;;;;;4979598;28;20053;-80
2022/11/25 10:52:29;;;;;;;17.80;9.38;;;-3.50;99.00;;;;;;4992604;28;20026;-80
2022/11/25 10:55:07;;;;;;;17.00;10.05;;;-3.50;99.00;;;;;;4992677;28;20110;-79
2022/11/25 10:57:34;;;;;;;13.43;10.23;;;-3.50;99.20;;;;;;4993986;28;20101;-80
2022/11/25 11:00:00;;;;;;;16.25;10.45;;;-3.40;99.20;;;;;;4993387;28;20018;-81
2022/11/25 11:02:29;;;;;;;20.75;11.02;;;-3.40;99.00;;;;;;4995528;28;20072;-81
2022/11/25 11:05:09;;;;;;;16.00;8.63;;;-3.50;98.80;;;;;;4993298;28;20117;-80
2022/11/25 11:07:43;;;;;;;12.77;9.02;;;-3.50;99.00;;;;;;4992452;28;20018;-81
2022/11/25 11:10:25;;;;;;;25.17;13.82;;;-3.50;99.00;;;;;;4991135;28;20031;-79
2022/11/25 11:12:59;;;;;;;12.35;7.82;;;-3.50;99.50;;;;;;4995824;28;20092;-81
2022/11/25 11:15:29;;;;;;;23.38;13.00;;;-3.40;99.20;;;;;;4995788;28;20547;-78
2022/11/25 11:17:57;;;;;;;26.90;13.10;;;-3.40;99.00;;;;;;4995599;28;20077;-79
2022/11/25 11:20:30;;;;;;;23.30;11.10;;;-3.40;99.20;;;;;;4995511;28;20030;-80
2022/11/25 11:23:11;;;;;;;18.88;11.77;;;-3.40;99.30;;;;;;4995594;28;20073;-79
2022/11/25 11:25:42;;;;;;;12.85;9.02;;;-3.30;99.10;;;;;;4993335;28;20125;-79
2022/11/25 11:28:33;;;;;;;16.70;11.05;;;-3.40;98.70;;;;;;4994091;28;20088;-81
2022/11/25 11:31:16;;;;;;;12.10;6.38;;;-3.50;98.90;;;;;;4982308;28;20029;-80
2022/11/25 11:33:54;;;;;;;17.10;11.48;;;-3.40;99.10;;;;;;4994239;28;20022;-80
2022/11/25 11:36:47;;;;;;;16.98;9.80;;;-3.40;99.00;;;;;;4994234;28;20458;-80
2022/11/25 11:39:47;;;;;;;16.10;10.25;;;-3.50;98.70;;;;;;4993723;28;20038;-80
2022/11/25 11:42:52;;;;;;;17.20;10.65;;;-3.60;98.80;;;;;;4992744;28;20133;-79
2022/11/25 11:45:33;;;;;;;19.77;11.60;;;-3.60;99.10;;;;;;4953514;28;20114;-83
2022/11/25 11:48:30;;;;;;;18.42;11.25;;;-3.60;99.20;;;;;;4953372;29;20087;-80
2022/11/25 11:51:27;;;;;;;16.02;9.18;;;-3.50;99.30;;;;;;4953001;29;20032;-80
2022/11/25 11:53:59;;;;;;;17.63;10.88;;;-3.50;99.00;;;;;;4963548;28;20034;-80
2022/11/25 11:56:35;;;;;;;14.93;9.45;;;-3.60;99.00;;;;;;4953011;28;20035;-79
2022/11/25 11:59:20;;;;;;;14.73;8.93;;;-3.60;99.00;;;;;;4939557;29;20034;-80
2022/11/25 12:02:13;;;;;;;13.30;8.68;;;-3.60;99.00;;;;;;4952540;28;20047;-80
2022/11/25 12:04:50;;;;;;;14.65;9.20;;;-3.60;98.90;;;;;;4967554;28;20034;-80
2022/11/25 12:07:58;;;;;;;16.35;11.35;;;-3.70;98.90;;;;;;4953385;28;20059;-80
2022/11/25 12:10:31;;;;;;;17.42;9.80;;;-3.70;99.10;;;;;;4939837;29;20122;-81
2022/11/25 12:13:22;;;;;;;24.70;11.15;;;-3.70;99.20;;;;;;4953400;28;20042;-80
2022/11/25 12:16:06;;;;;;;22.30;10.55;;;-3.60;99.40;;;;;;4969263;28;20031;-80
2022/11/25 12:19:02;;;;;;;14.57;8.55;;;-3.50;99.30;;;;;;4943633;29;20066;-81
2022/11/25 12:21:39;;;;;;;16.45;10.55;;;-3.40;99.30;;;;;;4979845;28;20042;-80
2022/11/25 12:24:13;;;;;;;17.13;9.88;;;-3.30;99.30;;;;;;4950829;28;1303907;-81
2022/11/25 12:26:58;;;;;;;14.40;9.95;;;-3.30;99.10;;;;;;4994766;28;20030;-80
2022/11/25 12:29:30;;;;;;;14.95;9.98;;;-3.30;99.10;;;;;;4989868;28;20065;-80
2022/11/25 12:32:25;;;;;;;15.45;9.85;;;-3.20;99.00;;;;;;4974901;28;20027;-80
2022/11/25 12:35:09;;;;;;;16.35;9.50;;;-3.20;98.80;;;;;;4992943;28;20532;-81
2022/11/25 12:37:58;;;;;;;19.08;10.32;;;-3.20;98.80;;;;;;4994115;28;20395;-82
2022/11/25 12:40:32;;;;;;;20.35;10.20;;;-3.20;98.70;;;;;;4994163;28;20230;-80
2022/11/25 12:43:43;;;;;;;15.20;10.25;;;-3.20;98.60;;;;;;4994170;28;20026;-82
2022/11/25 12:46:14;;;;;;;15.55;10.13;;;-3.30;98.80;;;;;;4994785;28;20026;-80
2022/11/25 12:48:42;;;;;;;14.88;10.63;;;-3.30;98.70;;;;;;4994071;28;20018;-80
2022/11/25 12:51:22;;;;;;;16.30;9.63;;;-3.30;98.70;;;;;;4994046;28;20038;-82
2022/11/25 12:54:10;;;;;;;15.73;8.43;;;-3.30;98.90;;;;;;4994279;28;20119;-79
2022/11/25 12:57:01;;;;;;;19.45;10.68;;;-3.30;98.90;;;;;;4994509;28;20121;-80
2022/11/25 12:59:39;;;;;;;16.27;9.07;;;-3.30;99.00;;;;;;4975176;28;20030;-79
2022/11/25 13:02:13;;;;;;;;;;;-3.30;98.80;;;;;;4997066;28;20023;-79